sensor_id;sensor_type;location;lat;lon;timestamp;P1;durP1;ratioP1;P2;durP2;ratioP2
51006;SDS011;37034;47.886;-3.904;2022-07-23T00:02:05;9.05;;;2.13;;
51006;SDS011;37034;47.886;-3.904;2022-07-23T00:04:31;10.13;;;1.60;;
51006;SDS011;37034;47.886;-3.904;2022-07-23T00:06:57;5.10;;;1.58;;
51006;SDS011;37034;47.886;-3.904;2022-07-23T00:09:23;7.43;;;1.35;;
51006;SDS011;37034;47.886;-3.904;2022-07-23T00:11:49;6.07;;;1.57;;
51006;SDS011;37034;47.886;-3.904;2022-07-23T00:14:14;5.57;;;1.45;;
51006;SDS011;37034;47.886;-3.904;2022-07-23T00:16:40;7.30;;;2.42;;
51006;SDS011;37034;47.886;-3.904;2022-07-23T00:19:05;6.95;;;1.60;;
51006;SDS011;37034;47.886;-3.904;2022-07-23T00:21:31;8.07;;;1.70;;
51006;SDS011;37034;47.886;-3.904;2022-07-23T00:23:57;5.90;;;1.75;;
51006;SDS011;37034;47.886;-3.904;2022-07-23T00:26:22;4.53;;;1.58;;
51006;SDS011;37034;47.886;-3.904;2022-07-23T00:28:48;6.50;;;1.77;;
51006;SDS011;37034;47.886;-3.904;2022-07-23T00:31:14;5.30;;;1.43;;
51006;SDS011;37034;47.886;-3.904;2022-07-23T00:33:40;5.53;;;1.25;;
51006;SDS011;37034;47.886;-3.904;2022-07-23T00:36:06;6.70;;;1.45;;
51006;SDS011;37034;47.886;-3.904;2022-07-23T00:38:32;6.35;;;1.80;;
51006;SDS011;37034;47.886;-3.904;2022-07-23T00:40:57;6.03;;;1.52;;
51006;SDS011;37034;47.886;-3.904;2022-07-23T00:43:23;7.97;;;1.50;;
51006;SDS011;37034;47.886;-3.904;2022-07-23T00:45:49;7.00;;;1.67;;
51006;SDS011;37034;47.886;-3.904;2022-07-23T00:48:14;9.63;;;1.85;;
51006;SDS011;37034;47.886;-3.904;2022-07-23T00:50:40;6.38;;;1.52;;
51006;SDS011;37034;47.886;-3.904;2022-07-23T00:53:06;8.48;;;2.15;;
51006;SDS011;37034;47.886;-3.904;2022-07-23T00:55:33;5.90;;;1.52;;
51006;SDS011;37034;47.886;-3.904;2022-07-23T00:57:59;5.03;;;1.67;;
51006;SDS011;37034;47.886;-3.904;2022-07-23T01:00:26;8.63;;;1.67;;
51006;SDS011;37034;47.886;-3.904;2022-07-23T01:02:52;5.93;;;1.75;;
51006;SDS011;37034;47.886;-3.904;2022-07-23T01:05:18;4.35;;;1.40;;
51006;SDS011;37034;47.886;-3.904;2022-07-23T01:07:47;7.30;;;1.70;;
51006;SDS011;37034;47.886;-3.904;2022-07-23T01:10:14;6.68;;;1.50;;
51006;SDS011;37034;47.886;-3.904;2022-07-23T01:15:32;5.60;;;1.50;;
51006;SDS011;37034;47.886;-3.904;2022-07-23T01:17:58;8.25;;;1.77;;
51006;SDS011;37034;47.886;-3.904;2022-07-23T01:20:24;13.23;;;1.92;;
51006;SDS011;37034;47.886;-3.904;2022-07-23T01:22:51;6.05;;;1.73;;
51006;SDS011;37034;47.886;-3.904;2022-07-23T01:25:17;4.82;;;1.48;;
51006;SDS011;37034;47.886;-3.904;2022-07-23T01:27:42;8.43;;;1.80;;
51006;SDS011;37034;47.886;-3.904;2022-07-23T01:30:09;5.55;;;1.20;;
51006;SDS011;37034;47.886;-3.904;2022-07-23T01:32:35;8.07;;;1.42;;
51006;SDS011;37034;47.886;-3.904;2022-07-23T01:35:01;5.80;;;1.50;;
51006;SDS011;37034;47.886;-3.904;2022-07-23T01:37:26;6.05;;;1.30;;
51006;SDS011;37034;47.886;-3.904;2022-07-23T01:39:52;9.35;;;2.03;;
51006;SDS011;37034;47.886;-3.904;2022-07-23T01:42:18;6.38;;;1.58;;
51006;SDS011;37034;47.886;-3.904;2022-07-23T01:44:43;9.80;;;1.80;;
51006;SDS011;37034;47.886;-3.904;2022-07-23T01:47:09;7.53;;;1.52;;
51006;SDS011;37034;47.886;-3.904;2022-07-23T01:49:35;6.43;;;1.55;;
51006;SDS011;37034;47.886;-3.904;2022-07-23T01:52:00;6.17;;;1.70;;
51006;SDS011;37034;47.886;-3.904;2022-07-23T01:54:27;7.30;;;1.80;;
51006;SDS011;37034;47.886;-3.904;2022-07-23T01:56:54;7.45;;;1.52;;
51006;SDS011;37034;47.886;-3.904;2022-07-23T01:59:20;7.13;;;1.75;;
51006;SDS011;37034;47.886;-3.904;2022-07-23T02:01:46;7.88;;;1.67;;
51006;SDS011;37034;47.886;-3.904;2022-07-23T02:04:12;6.03;;;1.73;;
51006;SDS011;37034;47.886;-3.904;2022-07-23T02:06:38;6.72;;;1.70;;
51006;SDS011;37034;47.886;-3.904;2022-07-23T02:09:03;8.05;;;1.65;;
51006;SDS011;37034;47.886;-3.904;2022-07-23T02:11:29;15.65;;;2.08;;
51006;SDS011;37034;47.886;-3.904;2022-07-23T02:13:55;12.23;;;1.90;;
51006;SDS011;37034;47.886;-3.904;2022-07-23T02:16:20;7.45;;;1.92;;
51006;SDS011;37034;47.886;-3.904;2022-07-23T02:18:46;8.90;;;1.70;;
51006;SDS011;37034;47.886;-3.904;2022-07-23T02:21:12;4.30;;;1.42;;
51006;SDS011;37034;47.886;-3.904;2022-07-23T02:23:38;12.18;;;1.77;;
51006;SDS011;37034;47.886;-3.904;2022-07-23T02:26:03;11.63;;;1.77;;
51006;SDS011;37034;47.886;-3.904;2022-07-23T02:28:29;7.57;;;1.70;;
51006;SDS011;37034;47.886;-3.904;2022-07-23T02:30:55;7.82;;;1.30;;
51006;SDS011;37034;47.886;-3.904;2022-07-23T02:33:20;5.43;;;1.42;;
51006;SDS011;37034;47.886;-3.904;2022-07-23T02:35:46;6.72;;;1.20;;
51006;SDS011;37034;47.886;-3.904;2022-07-23T02:38:12;6.47;;;1.60;;
51006;SDS011;37034;47.886;-3.904;2022-07-23T02:40:38;3.92;;;1.23;;
51006;SDS011;37034;47.886;-3.904;2022-07-23T02:43:03;5.40;;;1.60;;
51006;SDS011;37034;47.886;-3.904;2022-07-23T02:45:29;5.37;;;1.67;;
51006;SDS011;37034;47.886;-3.904;2022-07-23T02:47:55;5.20;;;1.33;;
51006;SDS011;37034;47.886;-3.904;2022-07-23T02:50:20;5.00;;;1.65;;
51006;SDS011;37034;47.886;-3.904;2022-07-23T02:52:46;7.65;;;1.60;;
51006;SDS011;37034;47.886;-3.904;2022-07-23T02:55:12;7.28;;;1.90;;
51006;SDS011;37034;47.886;-3.904;2022-07-23T02:57:37;5.72;;;1.70;;
51006;SDS011;37034;47.886;-3.904;2022-07-23T03:00:03;7.47;;;1.80;;
51006;SDS011;37034;47.886;-3.904;2022-07-23T03:02:30;3.15;;;1.38;;
51006;SDS011;37034;47.886;-3.904;2022-07-23T03:04:56;5.68;;;1.85;;
51006;SDS011;37034;47.886;-3.904;2022-07-23T03:07:22;10.13;;;2.15;;
51006;SDS011;37034;47.886;-3.904;2022-07-23T03:09:47;7.80;;;1.83;;
51006;SDS011;37034;47.886;-3.904;2022-07-23T03:12:13;5.50;;;1.48;;
51006;SDS011;37034;47.886;-3.904;2022-07-23T03:14:39;8.30;;;1.92;;
51006;SDS011;37034;47.886;-3.904;2022-07-23T03:17:05;8.35;;;1.95;;
51006;SDS011;37034;47.886;-3.904;2022-07-23T03:19:31;8.57;;;1.70;;
51006;SDS011;37034;47.886;-3.904;2022-07-23T03:21:57;6.88;;;1.42;;
51006;SDS011;37034;47.886;-3.904;2022-07-23T03:24:22;6.67;;;1.60;;
51006;SDS011;37034;47.886;-3.904;2022-07-23T03:27:08;5.95;;;1.63;;
51006;SDS011;37034;47.886;-3.904;2022-07-23T03:29:33;7.97;;;1.77;;
51006;SDS011;37034;47.886;-3.904;2022-07-23T03:31:59;6.22;;;1.65;;
51006;SDS011;37034;47.886;-3.904;2022-07-23T03:34:25;6.82;;;1.60;;
51006;SDS011;37034;47.886;-3.904;2022-07-23T03:36:50;6.57;;;1.87;;
51006;SDS011;37034;47.886;-3.904;2022-07-23T03:39:16;6.18;;;1.90;;
51006;SDS011;37034;47.886;-3.904;2022-07-23T03:41:41;7.33;;;1.53;;
51006;SDS011;37034;47.886;-3.904;2022-07-23T03:44:07;4.78;;;1.73;;
51006;SDS011;37034;47.886;-3.904;2022-07-23T03:46:33;6.47;;;1.77;;
51006;SDS011;37034;47.886;-3.904;2022-07-23T03:48:58;4.70;;;1.70;;
51006;SDS011;37034;47.886;-3.904;2022-07-23T03:51:24;11.73;;;1.97;;
51006;SDS011;37034;47.886;-3.904;2022-07-23T03:53:50;8.93;;;2.35;;
51006;SDS011;37034;47.886;-3.904;2022-07-23T03:56:15;8.27;;;1.67;;
51006;SDS011;37034;47.886;-3.904;2022-07-23T03:58:41;8.47;;;1.83;;
51006;SDS011;37034;47.886;-3.904;2022-07-23T04:01:07;7.22;;;1.98;;
51006;SDS011;37034;47.886;-3.904;2022-07-23T04:03:32;6.50;;;1.45;;
51006;SDS011;37034;47.886;-3.904;2022-07-23T04:05:58;10.13;;;2.50;;
51006;SDS011;37034;47.886;-3.904;2022-07-23T04:08:23;5.20;;;1.43;;
51006;SDS011;37034;47.886;-3.904;2022-07-23T04:10:50;10.50;;;2.03;;
51006;SDS011;37034;47.886;-3.904;2022-07-23T04:13:16;5.90;;;1.60;;
51006;SDS011;37034;47.886;-3.904;2022-07-23T04:15:42;6.10;;;1.63;;
51006;SDS011;37034;47.886;-3.904;2022-07-23T04:18:07;5.57;;;1.43;;
51006;SDS011;37034;47.886;-3.904;2022-07-23T04:20:33;5.00;;;1.50;;
51006;SDS011;37034;47.886;-3.904;2022-07-23T04:22:59;5.97;;;1.43;;
51006;SDS011;37034;47.886;-3.904;2022-07-23T04:25:24;6.82;;;2.00;;
51006;SDS011;37034;47.886;-3.904;2022-07-23T04:27:50;9.27;;;1.65;;
51006;SDS011;37034;47.886;-3.904;2022-07-23T04:30:16;7.85;;;1.40;;
51006;SDS011;37034;47.886;-3.904;2022-07-23T04:32:41;5.47;;;1.50;;
51006;SDS011;37034;47.886;-3.904;2022-07-23T04:35:07;7.07;;;1.50;;
51006;SDS011;37034;47.886;-3.904;2022-07-23T04:37:33;4.85;;;1.48;;
51006;SDS011;37034;47.886;-3.904;2022-07-23T04:39:59;3.77;;;1.20;;
51006;SDS011;37034;47.886;-3.904;2022-07-23T04:42:24;8.00;;;2.00;;
51006;SDS011;37034;47.886;-3.904;2022-07-23T04:44:50;6.27;;;1.83;;
51006;SDS011;37034;47.886;-3.904;2022-07-23T04:47:16;5.60;;;1.70;;
51006;SDS011;37034;47.886;-3.904;2022-07-23T04:49:41;6.50;;;1.58;;
51006;SDS011;37034;47.886;-3.904;2022-07-23T04:52:07;4.13;;;1.60;;
51006;SDS011;37034;47.886;-3.904;2022-07-23T04:54:33;3.97;;;1.53;;
51006;SDS011;37034;47.886;-3.904;2022-07-23T04:56:58;4.70;;;1.87;;
51006;SDS011;37034;47.886;-3.904;2022-07-23T04:59:24;3.77;;;1.60;;
51006;SDS011;37034;47.886;-3.904;2022-07-23T05:01:50;5.30;;;1.90;;
51006;SDS011;37034;47.886;-3.904;2022-07-23T05:04:15;5.77;;;2.20;;
51006;SDS011;37034;47.886;-3.904;2022-07-23T05:06:41;6.07;;;2.00;;
51006;SDS011;37034;47.886;-3.904;2022-07-23T05:09:07;6.47;;;2.93;;
51006;SDS011;37034;47.886;-3.904;2022-07-23T05:11:32;8.23;;;1.98;;
51006;SDS011;37034;47.886;-3.904;2022-07-23T05:13:58;4.60;;;1.50;;
51006;SDS011;37034;47.886;-3.904;2022-07-23T05:16:23;7.67;;;2.00;;
51006;SDS011;37034;47.886;-3.904;2022-07-23T05:18:49;7.90;;;2.20;;
51006;SDS011;37034;47.886;-3.904;2022-07-23T05:21:15;7.83;;;2.60;;
51006;SDS011;37034;47.886;-3.904;2022-07-23T05:23:42;6.28;;;2.13;;
51006;SDS011;37034;47.886;-3.904;2022-07-23T05:26:07;4.97;;;1.70;;
51006;SDS011;37034;47.886;-3.904;2022-07-23T05:28:33;8.53;;;2.00;;
51006;SDS011;37034;47.886;-3.904;2022-07-23T05:30:59;8.40;;;2.58;;
51006;SDS011;37034;47.886;-3.904;2022-07-23T05:33:24;6.93;;;2.47;;
51006;SDS011;37034;47.886;-3.904;2022-07-23T05:35:50;6.18;;;1.95;;
51006;SDS011;37034;47.886;-3.904;2022-07-23T05:38:15;6.77;;;1.90;;
51006;SDS011;37034;47.886;-3.904;2022-07-23T05:40:41;6.97;;;2.33;;
51006;SDS011;37034;47.886;-3.904;2022-07-23T05:43:07;7.70;;;2.20;;
51006;SDS011;37034;47.886;-3.904;2022-07-23T05:45:32;6.60;;;2.08;;
51006;SDS011;37034;47.886;-3.904;2022-07-23T05:47:58;6.78;;;2.13;;
51006;SDS011;37034;47.886;-3.904;2022-07-23T05:50:24;5.03;;;1.70;;
51006;SDS011;37034;47.886;-3.904;2022-07-23T05:52:49;7.90;;;2.03;;
51006;SDS011;37034;47.886;-3.904;2022-07-23T05:55:15;6.28;;;2.20;;
51006;SDS011;37034;47.886;-3.904;2022-07-23T05:57:41;4.45;;;1.73;;
51006;SDS011;37034;47.886;-3.904;2022-07-23T06:00:07;8.63;;;2.13;;
51006;SDS011;37034;47.886;-3.904;2022-07-23T06:02:34;3.97;;;1.60;;
51006;SDS011;37034;47.886;-3.904;2022-07-23T06:05:00;6.05;;;2.08;;
51006;SDS011;37034;47.886;-3.904;2022-07-23T06:07:26;6.22;;;2.05;;
51006;SDS011;37034;47.886;-3.904;2022-07-23T06:09:51;6.72;;;1.92;;
51006;SDS011;37034;47.886;-3.904;2022-07-23T06:12:17;6.53;;;1.75;;
51006;SDS011;37034;47.886;-3.904;2022-07-23T06:14:43;5.35;;;1.70;;
51006;SDS011;37034;47.886;-3.904;2022-07-23T06:17:09;8.93;;;1.80;;
51006;SDS011;37034;47.886;-3.904;2022-07-23T06:19:35;4.13;;;1.60;;
51006;SDS011;37034;47.886;-3.904;2022-07-23T06:22:00;14.05;;;2.05;;
51006;SDS011;37034;47.886;-3.904;2022-07-23T06:24:26;25.40;;;2.30;;
51006;SDS011;37034;47.886;-3.904;2022-07-23T06:26:51;11.43;;;2.40;;
51006;SDS011;37034;47.886;-3.904;2022-07-23T06:29:17;21.38;;;2.25;;
51006;SDS011;37034;47.886;-3.904;2022-07-23T06:31:43;10.80;;;1.80;;
51006;SDS011;37034;47.886;-3.904;2022-07-23T06:34:08;11.20;;;1.60;;
51006;SDS011;37034;47.886;-3.904;2022-07-23T06:36:34;13.13;;;2.53;;
51006;SDS011;37034;47.886;-3.904;2022-07-23T06:38:59;4.93;;;1.33;;
51006;SDS011;37034;47.886;-3.904;2022-07-23T06:41:25;5.53;;;1.60;;
51006;SDS011;37034;47.886;-3.904;2022-07-23T06:43:51;4.25;;;1.90;;
51006;SDS011;37034;47.886;-3.904;2022-07-23T06:46:16;10.05;;;2.08;;
51006;SDS011;37034;47.886;-3.904;2022-07-23T06:48:42;7.85;;;2.05;;
51006;SDS011;37034;47.886;-3.904;2022-07-23T06:51:08;6.40;;;1.58;;
51006;SDS011;37034;47.886;-3.904;2022-07-23T06:53:33;4.13;;;1.77;;
51006;SDS011;37034;47.886;-3.904;2022-07-23T06:55:59;6.72;;;1.83;;
51006;SDS011;37034;47.886;-3.904;2022-07-23T06:58:25;7.05;;;1.70;;
51006;SDS011;37034;47.886;-3.904;2022-07-23T07:00:50;3.53;;;1.30;;
51006;SDS011;37034;47.886;-3.904;2022-07-23T07:03:17;4.45;;;1.17;;
51006;SDS011;37034;47.886;-3.904;2022-07-23T07:05:43;3.65;;;1.02;;
51006;SDS011;37034;47.886;-3.904;2022-07-23T07:08:08;5.13;;;1.20;;
51006;SDS011;37034;47.886;-3.904;2022-07-23T07:10:34;4.57;;;1.17;;
51006;SDS011;37034;47.886;-3.904;2022-07-23T07:13:00;5.82;;;1.25;;
51006;SDS011;37034;47.886;-3.904;2022-07-23T07:15:25;4.03;;;1.25;;
51006;SDS011;37034;47.886;-3.904;2022-07-23T07:17:51;3.78;;;1.08;;
51006;SDS011;37034;47.886;-3.904;2022-07-23T07:20:17;3.88;;;1.25;;
51006;SDS011;37034;47.886;-3.904;2022-07-23T07:22:42;5.20;;;1.15;;
51006;SDS011;37034;47.886;-3.904;2022-07-23T07:25:08;4.85;;;1.20;;
51006;SDS011;37034;47.886;-3.904;2022-07-23T07:27:34;2.97;;;1.17;;
51006;SDS011;37034;47.886;-3.904;2022-07-23T07:30:00;6.07;;;1.45;;
51006;SDS011;37034;47.886;-3.904;2022-07-23T07:32:25;5.95;;;1.30;;
51006;SDS011;37034;47.886;-3.904;2022-07-23T07:34:51;4.13;;;1.30;;
51006;SDS011;37034;47.886;-3.904;2022-07-23T07:37:17;4.57;;;1.20;;
51006;SDS011;37034;47.886;-3.904;2022-07-23T07:39:42;3.60;;;1.27;;
51006;SDS011;37034;47.886;-3.904;2022-07-23T07:42:08;3.70;;;1.33;;
51006;SDS011;37034;47.886;-3.904;2022-07-23T07:44:34;3.67;;;1.40;;
51006;SDS011;37034;47.886;-3.904;2022-07-23T07:46:59;2.55;;;0.80;;
51006;SDS011;37034;47.886;-3.904;2022-07-23T07:49:25;3.47;;;0.98;;
51006;SDS011;37034;47.886;-3.904;2022-07-23T07:51:51;2.35;;;0.75;;
51006;SDS011;37034;47.886;-3.904;2022-07-23T07:54:16;4.82;;;1.10;;
51006;SDS011;37034;47.886;-3.904;2022-07-23T07:56:42;3.33;;;1.00;;
51006;SDS011;37034;47.886;-3.904;2022-07-23T07:59:08;5.05;;;1.08;;
51006;SDS011;37034;47.886;-3.904;2022-07-23T08:01:33;2.38;;;0.95;;
51006;SDS011;37034;47.886;-3.904;2022-07-23T08:03:59;3.40;;;0.80;;
51006;SDS011;37034;47.886;-3.904;2022-07-23T08:06:25;1.90;;;0.80;;
51006;SDS011;37034;47.886;-3.904;2022-07-23T08:08:50;4.05;;;0.85;;
51006;SDS011;37034;47.886;-3.904;2022-07-23T08:11:16;3.05;;;0.70;;
51006;SDS011;37034;47.886;-3.904;2022-07-23T08:13:41;2.30;;;0.60;;
51006;SDS011;37034;47.886;-3.904;2022-07-23T08:16:09;1.63;;;0.50;;
51006;SDS011;37034;47.886;-3.904;2022-07-23T08:18:35;2.22;;;0.63;;
51006;SDS011;37034;47.886;-3.904;2022-07-23T08:21:01;7.13;;;1.02;;
51006;SDS011;37034;47.886;-3.904;2022-07-23T08:23:27;4.30;;;1.50;;
51006;SDS011;37034;47.886;-3.904;2022-07-23T08:25:53;4.32;;;0.70;;
51006;SDS011;37034;47.886;-3.904;2022-07-23T08:28:18;1.63;;;0.65;;
51006;SDS011;37034;47.886;-3.904;2022-07-23T08:30:44;2.40;;;0.60;;
51006;SDS011;37034;47.886;-3.904;2022-07-23T08:33:11;2.35;;;0.60;;
51006;SDS011;37034;47.886;-3.904;2022-07-23T08:35:49;1.75;;;0.60;;
51006;SDS011;37034;47.886;-3.904;2022-07-23T08:38:16;2.60;;;0.60;;
51006;SDS011;37034;47.886;-3.904;2022-07-23T08:40:45;2.58;;;0.70;;
51006;SDS011;37034;47.886;-3.904;2022-07-23T08:43:13;2.95;;;0.70;;
51006;SDS011;37034;47.886;-3.904;2022-07-23T08:45:41;5.28;;;0.77;;
51006;SDS011;37034;47.886;-3.904;2022-07-23T08:48:16;6.22;;;0.90;;
51006;SDS011;37034;47.886;-3.904;2022-07-23T08:50:45;2.72;;;0.70;;
51006;SDS011;37034;47.886;-3.904;2022-07-23T08:53:12;3.13;;;0.70;;
51006;SDS011;37034;47.886;-3.904;2022-07-23T08:55:38;2.88;;;0.88;;
51006;SDS011;37034;47.886;-3.904;2022-07-23T08:58:04;4.55;;;0.90;;
51006;SDS011;37034;47.886;-3.904;2022-07-23T09:00:31;3.85;;;0.82;;
51006;SDS011;37034;47.886;-3.904;2022-07-23T09:02:57;1.48;;;0.73;;
51006;SDS011;37034;47.886;-3.904;2022-07-23T09:05:23;2.75;;;0.80;;
51006;SDS011;37034;47.886;-3.904;2022-07-23T09:16:14;2.00;;;0.70;;
51006;SDS011;37034;47.886;-3.904;2022-07-23T09:18:47;2.40;;;0.93;;
51006;SDS011;37034;47.886;-3.904;2022-07-23T09:26:41;2.63;;;0.80;;
51006;SDS011;37034;47.886;-3.904;2022-07-23T09:29:19;4.85;;;1.10;;
51006;SDS011;37034;47.886;-3.904;2022-07-23T09:39:38;1.95;;;1.00;;
51006;SDS011;37034;47.886;-3.904;2022-07-23T09:42:21;4.15;;;1.13;;
51006;SDS011;37034;47.886;-3.904;2022-07-23T09:44:49;2.72;;;1.10;;
51006;SDS011;37034;47.886;-3.904;2022-07-23T09:47:17;3.55;;;0.93;;
51006;SDS011;37034;47.886;-3.904;2022-07-23T09:50:00;3.33;;;0.90;;
51006;SDS011;37034;47.886;-3.904;2022-07-23T09:52:34;2.83;;;0.82;;
51006;SDS011;37034;47.886;-3.904;2022-07-23T09:55:11;2.13;;;0.68;;
51006;SDS011;37034;47.886;-3.904;2022-07-23T10:00:05;2.17;;;0.80;;
51006;SDS011;37034;47.886;-3.904;2022-07-23T10:02:34;2.63;;;1.00;;
51006;SDS011;37034;47.886;-3.904;2022-07-23T10:07:31;1.55;;;0.70;;
51006;SDS011;37034;47.886;-3.904;2022-07-23T10:10:00;2.50;;;0.88;;
51006;SDS011;37034;47.886;-3.904;2022-07-23T10:12:26;2.53;;;0.80;;
51006;SDS011;37034;47.886;-3.904;2022-07-23T10:15:02;2.63;;;0.85;;
51006;SDS011;37034;47.886;-3.904;2022-07-23T10:17:30;2.85;;;0.90;;
51006;SDS011;37034;47.886;-3.904;2022-07-23T10:19:56;3.30;;;1.08;;
51006;SDS011;37034;47.886;-3.904;2022-07-23T10:22:24;1.75;;;0.70;;
51006;SDS011;37034;47.886;-3.904;2022-07-23T10:30:25;2.83;;;0.90;;
51006;SDS011;37034;47.886;-3.904;2022-07-23T10:33:55;2.83;;;0.95;;
51006;SDS011;37034;47.886;-3.904;2022-07-23T10:35:55;3.35;;;0.80;;
51006;SDS011;37034;47.886;-3.904;2022-07-23T10:38:42;2.03;;;0.68;;
51006;SDS011;37034;47.886;-3.904;2022-07-23T10:41:30;3.08;;;0.80;;
51006;SDS011;37034;47.886;-3.904;2022-07-23T10:44:10;4.05;;;0.70;;
51006;SDS011;37034;47.886;-3.904;2022-07-23T10:46:56;3.35;;;0.90;;
51006;SDS011;37034;47.886;-3.904;2022-07-23T10:49:41;3.92;;;0.73;;
51006;SDS011;37034;47.886;-3.904;2022-07-23T10:54:43;5.90;;;1.05;;
51006;SDS011;37034;47.886;-3.904;2022-07-23T10:57:14;7.65;;;0.88;;
51006;SDS011;37034;47.886;-3.904;2022-07-23T11:02:32;2.15;;;1.00;;
51006;SDS011;37034;47.886;-3.904;2022-07-23T11:04:59;5.88;;;1.05;;
51006;SDS011;37034;47.886;-3.904;2022-07-23T11:07:26;1.83;;;0.70;;
51006;SDS011;37034;47.886;-3.904;2022-07-23T11:09:53;2.17;;;0.80;;
51006;SDS011;37034;47.886;-3.904;2022-07-23T11:17:58;1.85;;;0.80;;
51006;SDS011;37034;47.886;-3.904;2022-07-23T11:20:26;3.35;;;1.27;;
51006;SDS011;37034;47.886;-3.904;2022-07-23T11:27:49;1.80;;;0.70;;
51006;SDS011;37034;47.886;-3.904;2022-07-23T11:32:54;3.03;;;0.60;;
51006;SDS011;37034;47.886;-3.904;2022-07-23T11:35:48;2.45;;;0.95;;
51006;SDS011;37034;47.886;-3.904;2022-07-23T11:38:22;1.77;;;0.70;;
51006;SDS011;37034;47.886;-3.904;2022-07-23T11:40:54;1.45;;;0.60;;
51006;SDS011;37034;47.886;-3.904;2022-07-23T11:43:24;2.42;;;0.93;;
51006;SDS011;37034;47.886;-3.904;2022-07-23T11:45:51;1.83;;;0.80;;
51006;SDS011;37034;47.886;-3.904;2022-07-23T11:48:23;3.30;;;0.88;;
51006;SDS011;37034;47.886;-3.904;2022-07-23T11:50:51;2.67;;;0.90;;
51006;SDS011;37034;47.886;-3.904;2022-07-23T11:53:27;1.85;;;0.80;;
51006;SDS011;37034;47.886;-3.904;2022-07-23T11:56:02;4.32;;;0.98;;
51006;SDS011;37034;47.886;-3.904;2022-07-23T11:58:32;6.85;;;1.10;;
51006;SDS011;37034;47.886;-3.904;2022-07-23T12:00:58;3.60;;;0.90;;
51006;SDS011;37034;47.886;-3.904;2022-07-23T12:03:24;1.98;;;0.70;;
51006;SDS011;37034;47.886;-3.904;2022-07-23T12:05:50;2.50;;;0.80;;
51006;SDS011;37034;47.886;-3.904;2022-07-23T12:08:22;3.42;;;1.00;;
51006;SDS011;37034;47.886;-3.904;2022-07-23T12:10:48;2.05;;;0.70;;
51006;SDS011;37034;47.886;-3.904;2022-07-23T12:13:17;1.30;;;0.70;;
51006;SDS011;37034;47.886;-3.904;2022-07-23T12:15:49;4.10;;;0.80;;
51006;SDS011;37034;47.886;-3.904;2022-07-23T12:18:19;1.65;;;0.70;;
51006;SDS011;37034;47.886;-3.904;2022-07-23T12:20:50;2.22;;;0.90;;
51006;SDS011;37034;47.886;-3.904;2022-07-23T12:23:18;3.13;;;0.77;;
51006;SDS011;37034;47.886;-3.904;2022-07-23T12:25:45;2.40;;;0.77;;
51006;SDS011;37034;47.886;-3.904;2022-07-23T12:28:15;2.67;;;1.23;;
51006;SDS011;37034;47.886;-3.904;2022-07-23T12:30:46;4.22;;;0.90;;
51006;SDS011;37034;47.886;-3.904;2022-07-23T12:33:29;1.45;;;0.70;;
51006;SDS011;37034;47.886;-3.904;2022-07-23T12:35:57;2.38;;;0.90;;
51006;SDS011;37034;47.886;-3.904;2022-07-23T12:38:26;1.55;;;0.80;;
51006;SDS011;37034;47.886;-3.904;2022-07-23T12:40:53;1.98;;;0.70;;
51006;SDS011;37034;47.886;-3.904;2022-07-23T12:43:25;3.20;;;0.80;;
51006;SDS011;37034;47.886;-3.904;2022-07-23T12:45:53;1.85;;;0.75;;
51006;SDS011;37034;47.886;-3.904;2022-07-23T12:48:25;2.50;;;0.70;;
51006;SDS011;37034;47.886;-3.904;2022-07-23T12:53:20;2.03;;;0.80;;
51006;SDS011;37034;47.886;-3.904;2022-07-23T12:55:48;2.45;;;1.10;;
51006;SDS011;37034;47.886;-3.904;2022-07-23T12:58:15;2.85;;;0.90;;
51006;SDS011;37034;47.886;-3.904;2022-07-23T13:00:59;3.67;;;0.80;;
51006;SDS011;37034;47.886;-3.904;2022-07-23T13:03:31;2.30;;;0.70;;
51006;SDS011;37034;47.886;-3.904;2022-07-23T13:06:03;4.68;;;0.80;;
51006;SDS011;37034;47.886;-3.904;2022-07-23T13:08:31;2.17;;;0.70;;
51006;SDS011;37034;47.886;-3.904;2022-07-23T13:10:58;3.05;;;0.70;;
51006;SDS011;37034;47.886;-3.904;2022-07-23T13:13:25;2.05;;;0.70;;
51006;SDS011;37034;47.886;-3.904;2022-07-23T13:15:53;3.05;;;0.80;;
51006;SDS011;37034;47.886;-3.904;2022-07-23T13:18:19;3.88;;;0.88;;
51006;SDS011;37034;47.886;-3.904;2022-07-23T13:20:46;2.53;;;0.82;;
51006;SDS011;37034;47.886;-3.904;2022-07-23T13:23:13;2.70;;;0.90;;
51006;SDS011;37034;47.886;-3.904;2022-07-23T13:25:40;3.00;;;0.77;;
51006;SDS011;37034;47.886;-3.904;2022-07-23T13:28:06;2.55;;;0.80;;
51006;SDS011;37034;47.886;-3.904;2022-07-23T13:30:31;2.70;;;0.70;;
51006;SDS011;37034;47.886;-3.904;2022-07-23T13:32:58;2.25;;;0.77;;
51006;SDS011;37034;47.886;-3.904;2022-07-23T13:37:50;3.22;;;0.80;;
51006;SDS011;37034;47.886;-3.904;2022-07-23T13:40:15;2.38;;;0.70;;
51006;SDS011;37034;47.886;-3.904;2022-07-23T13:42:41;2.40;;;0.90;;
51006;SDS011;37034;47.886;-3.904;2022-07-23T13:45:07;1.50;;;0.70;;
51006;SDS011;37034;47.886;-3.904;2022-07-23T13:47:34;2.00;;;0.70;;
51006;SDS011;37034;47.886;-3.904;2022-07-23T13:49:59;3.33;;;0.80;;
51006;SDS011;37034;47.886;-3.904;2022-07-23T13:52:25;2.65;;;0.88;;
51006;SDS011;37034;47.886;-3.904;2022-07-23T13:54:51;2.08;;;0.80;;
51006;SDS011;37034;47.886;-3.904;2022-07-23T13:57:16;2.10;;;0.88;;
51006;SDS011;37034;47.886;-3.904;2022-07-23T13:59:42;2.35;;;0.80;;
51006;SDS011;37034;47.886;-3.904;2022-07-23T14:04:34;3.47;;;0.70;;
51006;SDS011;37034;47.886;-3.904;2022-07-23T14:07:00;2.67;;;0.80;;
51006;SDS011;37034;47.886;-3.904;2022-07-23T14:09:26;2.10;;;0.70;;
51006;SDS011;37034;47.886;-3.904;2022-07-23T14:11:52;2.33;;;0.80;;
51006;SDS011;37034;47.886;-3.904;2022-07-23T14:14:18;2.55;;;0.82;;
51006;SDS011;37034;47.886;-3.904;2022-07-23T14:16:44;4.60;;;0.90;;
51006;SDS011;37034;47.886;-3.904;2022-07-23T14:19:10;1.38;;;0.70;;
51006;SDS011;37034;47.886;-3.904;2022-07-23T14:21:36;2.28;;;0.70;;
51006;SDS011;37034;47.886;-3.904;2022-07-23T14:24:02;2.10;;;0.70;;
51006;SDS011;37034;47.886;-3.904;2022-07-23T14:28:54;4.43;;;0.90;;
51006;SDS011;37034;47.886;-3.904;2022-07-23T14:31:20;2.15;;;0.68;;
51006;SDS011;37034;47.886;-3.904;2022-07-23T14:33:46;1.85;;;0.90;;
51006;SDS011;37034;47.886;-3.904;2022-07-23T14:36:13;2.40;;;0.82;;
51006;SDS011;37034;47.886;-3.904;2022-07-23T14:38:40;2.28;;;0.80;;
51006;SDS011;37034;47.886;-3.904;2022-07-23T14:41:06;2.33;;;0.80;;
51006;SDS011;37034;47.886;-3.904;2022-07-23T14:43:33;1.90;;;0.82;;
51006;SDS011;37034;47.886;-3.904;2022-07-23T14:45:59;1.65;;;0.70;;
51006;SDS011;37034;47.886;-3.904;2022-07-23T14:48:25;3.15;;;0.80;;
51006;SDS011;37034;47.886;-3.904;2022-07-23T14:50:50;2.47;;;0.88;;
51006;SDS011;37034;47.886;-3.904;2022-07-23T14:53:16;1.75;;;0.70;;
51006;SDS011;37034;47.886;-3.904;2022-07-23T14:55:42;9.75;;;0.90;;
51006;SDS011;37034;47.886;-3.904;2022-07-23T14:58:08;2.92;;;0.80;;
51006;SDS011;37034;47.886;-3.904;2022-07-23T15:03:00;2.25;;;0.80;;
51006;SDS011;37034;47.886;-3.904;2022-07-23T15:05:25;2.55;;;0.77;;
51006;SDS011;37034;47.886;-3.904;2022-07-23T15:07:51;4.05;;;1.00;;
51006;SDS011;37034;47.886;-3.904;2022-07-23T15:10:17;3.47;;;0.63;;
51006;SDS011;37034;47.886;-3.904;2022-07-23T15:12:42;3.80;;;0.90;;
51006;SDS011;37034;47.886;-3.904;2022-07-23T15:15:08;4.18;;;0.90;;
51006;SDS011;37034;47.886;-3.904;2022-07-23T15:17:34;3.20;;;0.88;;
51006;SDS011;37034;47.886;-3.904;2022-07-23T15:19:59;2.53;;;0.80;;
51006;SDS011;37034;47.886;-3.904;2022-07-23T15:22:25;1.70;;;0.63;;
51006;SDS011;37034;47.886;-3.904;2022-07-23T15:24:51;1.38;;;0.55;;
51006;SDS011;37034;47.886;-3.904;2022-07-23T15:27:17;1.70;;;0.70;;
51006;SDS011;37034;47.886;-3.904;2022-07-23T15:29:43;2.60;;;0.68;;
51006;SDS011;37034;47.886;-3.904;2022-07-23T15:32:10;2.08;;;0.70;;
51006;SDS011;37034;47.886;-3.904;2022-07-23T15:34:36;1.27;;;0.60;;
51006;SDS011;37034;47.886;-3.904;2022-07-23T15:37:03;2.42;;;0.60;;
51006;SDS011;37034;47.886;-3.904;2022-07-23T15:39:30;2.45;;;0.70;;